Amanda — WDF2362 — position and weather

sailwx.info

Track history (hours):
 
Tides and Currents Weather Stations Pressure Air Temp Water Temp Dewpoint Dewpoint Depression Visibility Wind Speed Wind Dir Waves Ship Positions

Amanda

Owner: Enterprise Marine Services, LLC, San Antonio, TX. More information available from US FCC via Universal Licensing System and Coast Guard Vessel Documentation Center.

Last reported at 2017-Dec-17 04:34 UTC. Time now 2017-Dec-18 12:30 UTC.
Position N 29°50' W 091°57'.

Length 21 m; draft 3 m.

Type: Towing. MMSI: 367003230.

Date/timePositionNaut miles runAvg speedWind from/ knotsBaromVisibWave heightAir tempDewpointWater temp
2017-Dec-17 04:34N 29°50' W 091°57'0 5.4
2017-Dec-17 04:30N 29°50' W 091°57'3 5.3
2017-Dec-17 04:00N 29°50' W 092°00'3 5.2
2017-Dec-17 03:30N 29°49' W 092°03'3 5.6
2017-Dec-17 03:00N 29°48' W 092°06'3 5.5
2017-Dec-17 02:30N 29°47' W 092°09'2 4.6
2017-Dec-17 02:00N 29°47' W 092°12'1 2.6
2017-Dec-17 01:30N 29°47' W 092°13'1 1.0
2017-Dec-17 01:00N 29°48' W 092°14'3 5.3
2017-Dec-17 00:30N 29°49' W 092°17'2 4.5
2017-Dec-17 00:00N 29°50' W 092°18'1 2.5
2017-Dec-16 23:30N 29°51' W 092°20'39 4.6
2017-Dec-16 14:54N 29°56' W 093°05'2 5.0
2017-Dec-16 14:30N 29°56' W 093°07'2 4.9
2017-Dec-16 14:00N 29°56' W 093°10'2 3.2
2017-Dec-16 13:30N 29°58' W 093°11'3 5.1
2017-Dec-16 13:00N 29°60' W 093°13'2 4.8
2017-Dec-16 12:30N 30°02' W 093°14'1 1.8
2017-Dec-16 12:00N 30°02' W 093°15'0 0.1
2017-Dec-16 11:27N 30°02' W 093°15'2 4.2
2017-Dec-16 10:58N 30°04' W 093°16'2 2.3
2017-Dec-16 09:57N 30°06' W 093°18'1 2.2
2017-Dec-16 09:30N 30°06' W 093°19'0 0.1
2017-Dec-16 09:00N 30°06' W 093°19'0 0.0
2017-Dec-16 08:30N 30°06' W 093°19'0 0.0
2017-Dec-16 08:00N 30°06' W 093°19'0 0.0
2017-Dec-16 07:30N 30°06' W 093°19'2 3.6
2017-Dec-16 07:00N 30°04' W 093°20'2 3.6
2017-Dec-16 06:30N 30°04' W 093°22'3 5.1
2017-Dec-16 06:00N 30°04' W 093°25'3 5.1
2017-Dec-16 05:30N 30°04' W 093°28'2 5.0
2017-Dec-16 05:00N 30°04' W 093°31'2 5.0
2017-Dec-16 04:30N 30°04' W 093°34'3 5.0
2017-Dec-16 04:00N 30°04' W 093°37'3 5.5
2017-Dec-16 03:30N 30°04' W 093°40'71 2.6
2017-Dec-15 00:27N 29°31' W 094°53'18 0.5
2017-Dec-13 14:37N 29°45' W 095°06'0 1.9
2017-Dec-13 14:22N 29°45' W 095°06'1 3.3
2017-Dec-13 14:00N 29°46' W 095°05'1 1.0
2017-Dec-13 12:59N 29°47' W 095°05'1 2.3
2017-Dec-13 12:25N 29°46' W 095°05'3 5.9
2017-Dec-13 11:59N 29°44' W 095°03'0 0.5
2017-Dec-13 11:30N 29°44' W 095°03'2 4.8
2017-Dec-13 11:00N 29°46' W 095°05'1 0.1
2017-Dec-12 22:27N 29°47' W 095°05'0 0.0
2017-Dec-12 06:04N 29°47' W 095°05'0 0.1
2017-Dec-12 06:00N 29°47' W 095°05'0 0.0
2017-Dec-10 22:54N 29°47' W 095°05'1 1.3
2017-Dec-10 22:18N 29°47' W 095°04'1 0.0
2017-Dec-10 05:12N 29°47' W 095°05'0 0.0
2017-Dec-10 04:05N 29°47' W 095°05'0 0.5
2017-Dec-10 03:59N 29°47' W 095°05'1 1.2
2017-Dec-10 03:21N 29°47' W 095°05'0 0.5
2017-Dec-10 02:51N 29°47' W 095°05'1 0.1
2017-Dec-09 23:11N 29°47' W 095°05'0 0.0
2017-Dec-09 05:22N 29°47' W 095°05'0 0.0
2017-Dec-09 04:54N 29°47' W 095°05'0 0.0
2017-Dec-08 23:24N 29°47' W 095°05'0 0.1
2017-Dec-08 22:59N 29°47' W 095°05'0 0.3
2017-Dec-08 21:44N 29°47' W 095°05'3 5.7
2017-Dec-08 21:11N 29°45' W 095°06'2 7.9
2017-Dec-08 20:59N 29°44' W 095°08'4 6.9
2017-Dec-08 20:25N 29°44' W 095°13'2 3.8
2017-Dec-08 19:48N 29°43' W 095°15'1 1.7
2017-Dec-08 19:24N 29°43' W 095°14'0 0.9
2017-Dec-08 18:55N 29°43' W 095°14'2 5.5
2017-Dec-08 18:29N 29°45' W 095°12'3 5.7
2017-Dec-08 17:56N 29°44' W 095°08'2 1.4
2017-Dec-08 16:30N 29°46' W 095°07'2 1.7
2017-Dec-08 15:09N 29°47' W 095°05'0 1.4
2017-Dec-08 14:57N 29°47' W 095°05'2 1.8
2017-Dec-08 13:44N 29°45' W 095°06'3 5.7
2017-Dec-08 13:17N 29°44' W 095°08'2 5.8
2017-Dec-08 12:59N 29°45' W 095°10'2 3.8
2017-Dec-08 12:27N 29°44' W 095°12'0 0.2
2017-Dec-08 12:00N 29°44' W 095°12'0 0.1
2017-Dec-08 11:29N 29°44' W 095°12'0 0.0
2017-Dec-08 10:57N 29°44' W 095°12'0 0.0
2017-Dec-08 10:24N 29°44' W 095°12'0 0.0
2017-Dec-08 09:55N 29°44' W 095°12'0 0.0
2017-Dec-08 09:25N 29°44' W 095°12'0 0.0
2017-Dec-08 09:00N 29°44' W 095°12'0 0.0
2017-Dec-08 08:21N 29°44' W 095°12'0 0.0
2017-Dec-08 05:35N 29°44' W 095°12'0 0.0
2017-Dec-08 05:30N 29°44' W 095°12'0 0.4
2017-Dec-08 04:58N 29°44' W 095°12'0 0.0
2017-Dec-08 04:26N 29°44' W 095°12'0 0.0
2017-Dec-08 03:51N 29°44' W 095°12'0 0.0
2017-Dec-08 03:30N 29°44' W 095°12'0 0.0
2017-Dec-08 02:58N 29°44' W 095°12'0 0.0
2017-Dec-08 02:27N 29°44' W 095°12'0 0.0
2017-Dec-08 01:59N 29°44' W 095°12'0 0.0
2017-Dec-08 01:30N 29°44' W 095°12'0 0.0
2017-Dec-08 01:00N 29°44' W 095°12'0 0.0
2017-Dec-08 00:30N 29°44' W 095°12'0 0.0
2017-Dec-08 00:00N 29°44' W 095°12'0 0.0
2017-Dec-07 23:30N 29°44' W 095°12'0 0.0
2017-Dec-07 22:50N 29°44' W 095°12'0 0.0
2017-Dec-07 22:26N 29°44' W 095°12'0 0.0
2017-Dec-07 21:52N 29°44' W 095°12'0 0.0
2017-Dec-07 20:43N 29°44' W 095°12'0 0.0
2017-Dec-07 20:20N 29°44' W 095°12'0 0.0
2017-Dec-07 18:46N 29°44' W 095°12'0 0.4
2017-Dec-07 18:11N 29°44' W 095°12'1 6.6
2017-Dec-07 17:59N 29°45' W 095°11'3 6.3
2017-Dec-07 17:30N 29°44' W 095°07'4 0.3
2017-Dec-07 06:53N 29°47' W 095°05'1 1.2
2017-Dec-07 05:42N 29°46' W 095°06'0 1.1
2017-Dec-07 05:21N 29°46' W 095°06'  
Track history (hours):
 
Tides and Currents Weather Stations Pressure Air Temp Water Temp Dewpoint Dewpoint Depression Visibility Wind Speed Wind Dir Waves Ship Positions

Amanda

Owner: Enterprise Marine Services, LLC, San Antonio, TX. More information available from US FCC via Universal Licensing System and Coast Guard Vessel Documentation Center.

Last reported at 2017-Dec-17 04:34 UTC. Time now 2017-Dec-18 12:30 UTC.
Position N 29°50' W 091°57'.

Length 21 m; draft 3 m.

Type: Towing. MMSI: 367003230.

Date/timePositionNaut miles runAvg speedWind from/ knotsBaromVisibWave heightAir tempDewpointWater temp
2017-Dec-17 04:34N 29°50' W 091°57'0 5.4
2017-Dec-17 04:30N 29°50' W 091°57'3 5.3
2017-Dec-17 04:00N 29°50' W 092°00'3 5.2
2017-Dec-17 03:30N 29°49' W 092°03'3 5.6
2017-Dec-17 03:00N 29°48' W 092°06'3 5.5
2017-Dec-17 02:30N 29°47' W 092°09'2 4.6
2017-Dec-17 02:00N 29°47' W 092°12'1 2.6
2017-Dec-17 01:30N 29°47' W 092°13'1 1.0
2017-Dec-17 01:00N 29°48' W 092°14'3 5.3
2017-Dec-17 00:30N 29°49' W 092°17'2 4.5
2017-Dec-17 00:00N 29°50' W 092°18'1 2.5
2017-Dec-16 23:30N 29°51' W 092°20'39 4.6
2017-Dec-16 14:54N 29°56' W 093°05'2 5.0
2017-Dec-16 14:30N 29°56' W 093°07'2 4.9
2017-Dec-16 14:00N 29°56' W 093°10'2 3.2
2017-Dec-16 13:30N 29°58' W 093°11'3 5.1
2017-Dec-16 13:00N 29°60' W 093°13'2 4.8
2017-Dec-16 12:30N 30°02' W 093°14'1 1.8
2017-Dec-16 12:00N 30°02' W 093°15'0 0.1
2017-Dec-16 11:27N 30°02' W 093°15'2 4.2
2017-Dec-16 10:58N 30°04' W 093°16'2 2.3
2017-Dec-16 09:57N 30°06' W 093°18'1 2.2
2017-Dec-16 09:30N 30°06' W 093°19'0 0.1
2017-Dec-16 09:00N 30°06' W 093°19'0 0.0
2017-Dec-16 08:30N 30°06' W 093°19'0 0.0
2017-Dec-16 08:00N 30°06' W 093°19'0 0.0
2017-Dec-16 07:30N 30°06' W 093°19'2 3.6
2017-Dec-16 07:00N 30°04' W 093°20'2 3.6
2017-Dec-16 06:30N 30°04' W 093°22'3 5.1
2017-Dec-16 06:00N 30°04' W 093°25'3 5.1
2017-Dec-16 05:30N 30°04' W 093°28'2 5.0
2017-Dec-16 05:00N 30°04' W 093°31'2 5.0
2017-Dec-16 04:30N 30°04' W 093°34'3 5.0
2017-Dec-16 04:00N 30°04' W 093°37'3 5.5
2017-Dec-16 03:30N 30°04' W 093°40'71 2.6
2017-Dec-15 00:27N 29°31' W 094°53'18 0.5
2017-Dec-13 14:37N 29°45' W 095°06'0 1.9
2017-Dec-13 14:22N 29°45' W 095°06'1 3.3
2017-Dec-13 14:00N 29°46' W 095°05'1 1.0
2017-Dec-13 12:59N 29°47' W 095°05'1 2.3
2017-Dec-13 12:25N 29°46' W 095°05'3 5.9
2017-Dec-13 11:59N 29°44' W 095°03'0 0.5
2017-Dec-13 11:30N 29°44' W 095°03'2 4.8
2017-Dec-13 11:00N 29°46' W 095°05'1 0.1
2017-Dec-12 22:27N 29°47' W 095°05'0 0.0
2017-Dec-12 06:04N 29°47' W 095°05'0 0.1
2017-Dec-12 06:00N 29°47' W 095°05'0 0.0
2017-Dec-10 22:54N 29°47' W 095°05'1 1.3
2017-Dec-10 22:18N 29°47' W 095°04'1 0.0
2017-Dec-10 05:12N 29°47' W 095°05'0 0.0
2017-Dec-10 04:05N 29°47' W 095°05'0 0.5
2017-Dec-10 03:59N 29°47' W 095°05'1 1.2
2017-Dec-10 03:21N 29°47' W 095°05'0 0.5
2017-Dec-10 02:51N 29°47' W 095°05'1 0.1
2017-Dec-09 23:11N 29°47' W 095°05'0 0.0
2017-Dec-09 05:22N 29°47' W 095°05'0 0.0
2017-Dec-09 04:54N 29°47' W 095°05'0 0.0
2017-Dec-08 23:24N 29°47' W 095°05'0 0.1
2017-Dec-08 22:59N 29°47' W 095°05'0 0.3
2017-Dec-08 21:44N 29°47' W 095°05'3 5.7
2017-Dec-08 21:11N 29°45' W 095°06'2 7.9
2017-Dec-08 20:59N 29°44' W 095°08'4 6.9
2017-Dec-08 20:25N 29°44' W 095°13'2 3.8
2017-Dec-08 19:48N 29°43' W 095°15'1 1.7
2017-Dec-08 19:24N 29°43' W 095°14'0 0.9
2017-Dec-08 18:55N 29°43' W 095°14'2 5.5
2017-Dec-08 18:29N 29°45' W 095°12'3 5.7
2017-Dec-08 17:56N 29°44' W 095°08'2 1.4
2017-Dec-08 16:30N 29°46' W 095°07'2 1.7
2017-Dec-08 15:09N 29°47' W 095°05'0 1.4
2017-Dec-08 14:57N 29°47' W 095°05'2 1.8
2017-Dec-08 13:44N 29°45' W 095°06'3 5.7
2017-Dec-08 13:17N 29°44' W 095°08'2 5.8
2017-Dec-08 12:59N 29°45' W 095°10'2 3.8
2017-Dec-08 12:27N 29°44' W 095°12'0 0.2
2017-Dec-08 12:00N 29°44' W 095°12'0 0.1
2017-Dec-08 11:29N 29°44' W 095°12'0 0.0
2017-Dec-08 10:57N 29°44' W 095°12'0 0.0
2017-Dec-08 10:24N 29°44' W 095°12'0 0.0
2017-Dec-08 09:55N 29°44' W 095°12'0 0.0
2017-Dec-08 09:25N 29°44' W 095°12'0 0.0
2017-Dec-08 09:00N 29°44' W 095°12'0 0.0
2017-Dec-08 08:21N 29°44' W 095°12'0 0.0
2017-Dec-08 05:35N 29°44' W 095°12'0 0.0
2017-Dec-08 05:30N 29°44' W 095°12'0 0.4
2017-Dec-08 04:58N 29°44' W 095°12'0 0.0
2017-Dec-08 04:26N 29°44' W 095°12'0 0.0
2017-Dec-08 03:51N 29°44' W 095°12'0 0.0
2017-Dec-08 03:30N 29°44' W 095°12'0 0.0
2017-Dec-08 02:58N 29°44' W 095°12'0 0.0
2017-Dec-08 02:27N 29°44' W 095°12'0 0.0
2017-Dec-08 01:59N 29°44' W 095°12'0 0.0
2017-Dec-08 01:30N 29°44' W 095°12'0 0.0
2017-Dec-08 01:00N 29°44' W 095°12'0 0.0
2017-Dec-08 00:30N 29°44' W 095°12'0 0.0
2017-Dec-08 00:00N 29°44' W 095°12'0 0.0
2017-Dec-07 23:30N 29°44' W 095°12'0 0.0
2017-Dec-07 22:50N 29°44' W 095°12'0 0.0
2017-Dec-07 22:26N 29°44' W 095°12'0 0.0
2017-Dec-07 21:52N 29°44' W 095°12'0 0.0
2017-Dec-07 20:43N 29°44' W 095°12'0 0.0
2017-Dec-07 20:20N 29°44' W 095°12'0 0.0
2017-Dec-07 18:46N 29°44' W 095°12'0 0.4
2017-Dec-07 18:11N 29°44' W 095°12'1 6.6
2017-Dec-07 17:59N 29°45' W 095°11'3 6.3
2017-Dec-07 17:30N 29°44' W 095°07'4 0.3
2017-Dec-07 06:53N 29°47' W 095°05'1 1.2
2017-Dec-07 05:42N 29°46' W 095°06'0 1.1
2017-Dec-07 05:21N 29°46' W 095°06'  

Dump ship's entire track history